地図

経路データ

SID SEASON NUMBER BASIN SUBBASIN NAME ISO_TIME NATURE LAT LON WMO_WIND WMO_PRES WMO_AGENCY TRACK_TYPE DIST2LAND LANDFALL IFLAG USA_AGENCY USA_ATCF_ID USA_LAT USA_LON USA_RECORD USA_STATUS USA_WIND USA_PRES USA_SSHS USA_R34_NE USA_R34_SE USA_R34_SW USA_R34_NW USA_R50_NE USA_R50_SE USA_R50_SW USA_R50_NW USA_R64_NE USA_R64_SE USA_R64_SW USA_R64_NW USA_POCI USA_ROCI USA_RMW USA_EYE TOKYO_LAT TOKYO_LON TOKYO_GRADE TOKYO_WIND TOKYO_PRES TOKYO_R50_DIR TOKYO_R50_LONG TOKYO_R50_SHORT TOKYO_R30_DIR TOKYO_R30_LONG TOKYO_R30_SHORT TOKYO_LAND CMA_LAT CMA_LON CMA_CAT CMA_WIND CMA_PRES HKO_LAT HKO_LON HKO_CAT HKO_WIND HKO_PRES NEWDELHI_LAT NEWDELHI_LON NEWDELHI_GRADE NEWDELHI_WIND NEWDELHI_PRES NEWDELHI_CI NEWDELHI_DP NEWDELHI_POCI REUNION_LAT REUNION_LON REUNION_TYPE REUNION_WIND REUNION_PRES REUNION_TNUM REUNION_CI REUNION_RMW REUNION_R34_NE REUNION_R34_SE REUNION_R34_SW REUNION_R34_NW REUNION_R50_NE REUNION_R50_SE REUNION_R50_SW REUNION_R50_NW REUNION_R64_NE REUNION_R64_SE REUNION_R64_SW REUNION_R64_NW BOM_LAT BOM_LON BOM_TYPE BOM_WIND BOM_PRES BOM_TNUM BOM_CI BOM_RMW BOM_R34_NE BOM_R34_SE BOM_R34_SW BOM_R34_NW BOM_R50_NE BOM_R50_SE BOM_R50_SW BOM_R50_NW BOM_R64_NE BOM_R64_SE BOM_R64_SW BOM_R64_NW BOM_ROCI BOM_POCI BOM_EYE BOM_POS_METHOD BOM_PRES_METHOD NADI_LAT NADI_LON NADI_CAT NADI_WIND NADI_PRES WELLINGTON_LAT WELLINGTON_LON WELLINGTON_WIND WELLINGTON_PRES DS824_LAT DS824_LON DS824_STAGE DS824_WIND DS824_PRES TD9636_LAT TD9636_LON TD9636_STAGE TD9636_WIND TD9636_PRES TD9635_LAT TD9635_LON TD9635_WIND TD9635_PRES TD9635_ROCI NEUMANN_LAT NEUMANN_LON NEUMANN_CLASS NEUMANN_WIND NEUMANN_PRES MLC_LAT MLC_LON MLC_CLASS MLC_WIND MLC_PRES USA_GUST BOM_GUST BOM_GUST_PER REUNION_GUST REUNION_GUST_PER USA_SEAHGT USA_SEARAD_NE USA_SEARAD_SE USA_SEARAD_SW USA_SEARAD_NW STORM_SPEED STORM_DIR
1929046S16068 1929 17 SI MM NOT_NAMED 1929-02-14 18:00:00 NR -16.0000 68.4000 main 1218 1147 __________O___ -1 -16.0000 68.4000 7 15 223
1929046S16068 1929 17 SI MM NOT_NAMED 1929-02-14 21:00:00 NR -16.5572 67.8594 main 1142 1062 __________P___ -1 -16.5572 67.8594 7 15 223
1929046S16068 1929 17 SI MM NOT_NAMED 1929-02-15 00:00:00 NR -17.1210 67.3139 main 1062 989 __________P___ -1 -17.1210 67.3139 7 16 223
1929046S16068 1929 17 SI MM NOT_NAMED 1929-02-15 03:00:00 NR -17.6993 66.7615 main 989 906 __________P___ -1 -17.6993 66.7615 7 17 219
1929046S16068 1929 17 SI MM NOT_NAMED 1929-02-15 06:00:00 NR -18.4000 66.2200 reunion main 906 839 _____O____O___ -1 -18.8000 66.3000 99 9.90000 -18.3000 66.2000 7 17 216
1929046S16068 1929 17 SI MM NOT_NAMED 1929-02-15 09:00:00 NR -19.0734 65.6909 main 837 776 _____P____P___ -1 -19.3669 65.8133 99 -18.9267 65.6297 7 17 217
1929046S16068 1929 17 SI MM NOT_NAMED 1929-02-15 12:00:00 NR -19.7227 65.1741 main 776 719 _____P____P___ -1 -19.9330 65.3227 99 -19.5649 65.0627 7 16 217
1929046S16068 1929 17 SI MM NOT_NAMED 1929-02-15 15:00:00 NR -20.3468 64.6712 main 719 668 _____P____P___ -1 -20.4981 64.8283 99 -20.1956 64.5141 7 15 218
1929046S16068 1929 17 SI MM NOT_NAMED 1929-02-15 18:00:00 NR -20.9310 64.1650 main 669 625 _____P____O___ -1 -21.0619 64.3301 99 -20.8000 64.0000 7 15 219
1929046S16068 1929 17 SI MM NOT_NAMED 1929-02-15 21:00:00 NR -21.4621 63.6879 main 627 597 _____P____P___ -1 -21.6243 63.8281 99 -21.3000 63.5476 7 14 220
1929046S16068 1929 17 SI MM NOT_NAMED 1929-02-16 00:00:00 NR -21.9830 63.2261 main 591 568 _____P____P___ -1 -22.1849 63.3224 99 -21.7812 63.1297 7 14 219
1929046S16068 1929 17 SI MM NOT_NAMED 1929-02-16 03:00:00 NR -22.5202 62.7676 main 572 554 _____P____P___ -1 -22.7435 62.8130 99 -22.2969 62.7222 7 14 217
1929046S16068 1929 17 SI MM NOT_NAMED 1929-02-16 06:00:00 NR -23.1000 62.3000 reunion main 556 551 _____O____O___ -1 -23.3000 62.3000 99 9.90000 -22.9000 62.3000 7 15 214
1929046S16068 1929 17 SI MM NOT_NAMED 1929-02-16 09:00:00 NR -23.7490 61.8615 main 561 560 _____P____P___ -1 -23.8530 61.9248 99 -23.6449 61.7982 7 16 211
1929046S16068 1929 17 SI MM NOT_NAMED 1929-02-16 12:00:00 NR -24.4433 61.4125 main 578 578 _____P____P___ -1 -24.4056 61.5461 99 -24.4810 61.2789 7 16 210
1929046S16068 1929 17 SI MM NOT_NAMED 1929-02-16 15:00:00 NR -25.1669 60.9669 main 624 619 _____P____P___ -1 -24.9574 61.1640 99 -25.3764 60.7698 7 17 208
1929046S16068 1929 17 SI MM NOT_NAMED 1929-02-16 18:00:00 NR -25.9042 60.5391 main 667 667 _____P____O___ -1 -25.5084 60.7783 99 -26.3000 60.3000 7 17 207
1929046S16068 1929 17 SI MM NOT_NAMED 1929-02-16 21:00:00 NR -26.6424 60.1403 main 724 724 _____P____P___ -1 -26.0583 60.3890 99 -27.2265 59.8916 7 16 205
1929046S16068 1929 17 SI MM NOT_NAMED 1929-02-17 00:00:00 NR -27.3794 59.7654 main 792 787 _____P____P___ -1 -26.6070 59.9962 99 -28.1518 59.5345 7 16 204
1929046S16068 1929 17 SI MM NOT_NAMED 1929-02-17 03:00:00 NR -28.1153 59.4051 main 840 840 _____P____P___ -1 -27.1543 59.5999 99 -29.0763 59.2103 7 16 203
1929046S16068 1929 17 SI MM NOT_NAMED 1929-02-17 06:00:00 NR -28.8500 59.0500 reunion main 898 _____O____O___ -1 -27.7000 59.2000 99 9.90000 -30.0000 58.9000 7 16 203

IBTrACS Databaseについて

本データベースは、米国NOAAが公開する1842年以降の世界の熱帯低気圧のベストトラックデータアーカイブInternational Best Track Archive for Climate Stewardship (IBTrACS)を、ウェブで閲覧しやすい形式に変換したものです。

最終更新日:2021-10-08